Pagina principale
METAR-TAF:

METAR-TAF

Aeroporti :

Foz do Iguaçu, Paraná, Brasile

latitudine: 25-31S, longitudine: 054-35W, altezza: 180 m

Osservazione

Il bollettino è stato emesso 1 ora e 4 minuti fa, alle 14:13 UTC
Vento 10 kt da nord-est con raffiche fino a 20 kt
Temperature 32°C
Umidità 63%
Pressione 1017 hPa
Visibilità 10 km o più
Poco nuvoloso ad un'altezza di 3000 ft

METAR: SBFI 261413Z 04010G20KT 9999 FEW030 32/24 Q1017

Ora: 12:17 (15:17 UTC)

Previsione

Il bollettino è stato emesso 6 ore e 17 minuti fa, alle 09:00 UTC
Previsione valida dal 26 alle 12 UTC al 27 alle 12 UTC
Vento 6 kt da nord/nord-est
Visibilità 10 km o più
Nubi sparse ad un'altezza di 3000 ft
Evoluzione graduale
dal 26 alle 14 UTC al 26 alle 16 UTC
Visibilità: 7000 m
Nubi sparse ad un'altezza di 4000 ft
Poco nuvoloso ad un'altezza di 4500 ft, Cumulo congesto.

TAF: SBFI 260900Z 2612/2712 02006KT 9999 SCT030 TX33/2616Z TN24/2706Z BECMG 2614/2616 7000 SCT040 FEW045TCU RMK PDZ

Osservazioni e previsioni meteorologiche di più di 4000 aeroporti (messaggi METAR e TAF).

Le stazioni disponibili sono rappresentate dai dischi gialli e rossi sulla carta.

Puntare il mouse per vedere il nome della stazione.

Clicca sopra per visualizzare le osservazioni e previsioni meteorologiche.

Per cambiare la mappa : fare clic sui pulsanti verdi con una croce nera per ingrandire, il pulsante verde con un trattino per diminuire, o sulla freccia verde per le mappe adiacenti.


METAR-TAF: